Página principal
METAR-TAF:

METAR-TAF

Aeroportos :

Aeroporto Humberto Delgado

Lisboa, Portugal

latitude: 38-46N, longitude: 009-08W, altura: 114 m

Observação actual do tempo

O boletim foi feito há 39 minutos, às 23:30 UTC
Vento 4 kt de nordeste
Temperatura 14°C
Humidade 82%
Pressão 1021 hPa
Visibilidade 10 km ou mais
sem nuvens abaixo de 1500 metros e sem cumulonimbus

METAR: LPPT 132330Z 05004KT CAVOK 14/11 Q1021

Hora: 00:09 (00:09 UTC)

Previsão

O boletim foi feito há 1 hora e 9 minutos, às 23:00 UTC
Previsão válida de 14 às 00 UTC a 15 às 06 UTC
Vento 8 kt de nordeste
Visibilidade 10 km ou mais
sem nuvens abaixo de 1500 metros e sem cumulonimbus
Tornando-se
de 14 às 11 UTC a 14 às 13 UTC
Vento 5 kt de es-sudeste
Visibilidade 10 km ou mais
Nuvens dispersasa uma altura de 4000 ft

TAF: LPPT 132300Z 1400/1506 05008KT CAVOK BECMG 1411/1413 12005KT 9999 SCT040

Observações e previsões do tempo de mais de 4000 aeroportos (mensagens METAR e TAF).

As estações disponíveis são os pontos amarelos e vermelhos sobre o mapa.

Mova o rato sobre o mapa para ver o nome da estação.

Depois clique no ponto para visualizar as observações e previsões meteorológicas.

Para alterar o mapa : clique nos botões verdes com uma cruz preta para aumentar o zoom; no botão verde com uma pitada de zoom; ou nas setas verdes para mapas adjacentes.


METAR-TAF: